Time;durP1;ratioP1;P1;durP2;ratioP2;P2;SDS_P1;SDS_P2;PMS_P1;PMS_P2;Temp;Humidity;BMP_temperature;BMP_pressure;BME280_temperature;BME280_humidity;BME280_pressure;Samples;Min_cycle;Max_cycle;Signal;HPM_P1;HPM_P2
2022/12/12 00:01:32;;;;;;;53.50;28.05;;;;;;;;;;4943877;28;20046;-69
2022/12/12 00:03:58;;;;;;;50.33;27.95;;;;;;;;;;4944585;28;20050;-70
2022/12/12 00:06:24;;;;;;;46.58;26.58;;;;;;;;;;4943848;28;20056;-69
2022/12/12 00:08:50;;;;;;;48.03;24.63;;;;;;;;;;4940382;28;20081;-70
2022/12/12 00:11:17;;;;;;;47.55;26.10;;;;;;;;;;4946419;28;20062;-71
2022/12/12 00:13:43;;;;;;;48.67;26.90;;;;;;;;;;4946354;28;20387;-70
2022/12/12 00:16:11;;;;;;;50.60;26.67;;;;;;;;;;4946992;28;20039;-69
2022/12/12 00:18:37;;;;;;;51.78;26.38;;;;;;;;;;4946693;28;20045;-69
2022/12/12 00:21:06;;;;;;;47.20;25.10;;;;;;;;;;4947081;28;20069;-70
2022/12/12 00:23:35;;;;;;;44.45;24.38;;;;;;;;;;4927147;28;20958;-69
2022/12/12 00:26:01;;;;;;;60.28;29.02;;;;;;;;;;4945438;28;20458;-70
2022/12/12 00:28:28;;;;;;;61.33;29.48;;;;;;;;;;4945702;28;20113;-70
2022/12/12 00:30:53;;;;;;;62.70;31.80;;;;;;;;;;4944791;28;20058;-69
2022/12/12 00:33:18;;;;;;;49.33;27.65;;;;;;;;;;4912122;28;20049;-69
2022/12/12 00:35:47;;;;;;;46.97;25.67;;;;;;;;;;4944870;28;20107;-70
2022/12/12 00:38:13;;;;;;;54.15;26.38;;;;;;;;;;4945606;28;21495;-69
2022/12/12 00:40:38;;;;;;;50.50;29.33;;;;;;;;;;4946421;28;20083;-71
2022/12/12 00:43:06;;;;;;;43.72;27.88;;;;;;;;;;4945325;28;20960;-70
2022/12/12 00:45:32;;;;;;;53.47;29.65;;;;;;;;;;4925495;28;20058;-71
2022/12/12 00:48:01;;;;;;;47.95;26.17;;;;;;;;;;4945852;28;21245;-68
2022/12/12 00:50:26;;;;;;;49.83;28.60;;;;;;;;;;4928257;28;20079;-69
2022/12/12 00:52:52;;;;;;;48.30;27.65;;;;;;;;;;4941748;28;20097;-70
2022/12/12 00:55:20;;;;;;;44.63;26.67;;;;;;;;;;4945907;28;20845;-68
2022/12/12 00:57:45;;;;;;;58.33;29.50;;;;;;;;;;4944310;28;20049;-68
2022/12/12 01:00:13;;;;;;;52.25;28.60;;;;;;;;;;4944516;28;20041;-68
2022/12/12 01:02:38;;;;;;;53.85;29.17;;;;;;;;;;4945182;28;21438;-69
2022/12/12 01:05:04;;;;;;;54.13;28.67;;;;;;;;;;4944488;28;20181;-69
2022/12/12 01:07:29;;;;;;;54.35;27.42;;;;;;;;;;4938887;28;20516;-69
2022/12/12 01:09:57;;;;;;;48.50;27.25;;;;;;;;;;4943577;28;20630;-69
2022/12/12 01:12:25;;;;;;;55.25;28.08;;;;;;;;;;4921937;28;20069;-69
2022/12/12 01:14:50;;;;;;;53.03;28.15;;;;;;;;;;4906658;28;20050;-68
2022/12/12 01:17:17;;;;;;;56.75;29.65;;;;;;;;;;4945015;28;20645;-68
2022/12/12 01:19:43;;;;;;;56.33;28.70;;;;;;;;;;4944336;28;20060;-69
2022/12/12 01:22:08;;;;;;;51.17;26.33;;;;;;;;;;4925520;28;20042;-69
2022/12/12 01:24:34;;;;;;;48.50;26.08;;;;;;;;;;4943530;28;20084;-69
2022/12/12 01:26:59;;;;;;;45.65;26.63;;;;;;;;;;4944566;28;20076;-69
2022/12/12 01:29:25;;;;;;;52.75;26.95;;;;;;;;;;4944084;28;20178;-69
2022/12/12 01:31:50;;;;;;;48.90;25.25;;;;;;;;;;4944543;28;20829;-70
2022/12/12 01:34:15;;;;;;;46.70;25.13;;;;;;;;;;4941537;28;20153;-69
2022/12/12 01:36:41;;;;;;;50.47;28.40;;;;;;;;;;4923228;28;20042;-69
2022/12/12 01:39:08;;;;;;;51.17;26.98;;;;;;;;;;4945553;28;20091;-69
2022/12/12 01:41:33;;;;;;;49.70;27.33;;;;;;;;;;4921573;28;20117;-69
2022/12/12 01:44:03;;;;;;;58.08;26.77;;;;;;;;;;4926364;28;20066;-69
2022/12/12 01:46:33;;;;;;;60.20;29.35;;;;;;;;;;4928838;28;20052;-68
2022/12/12 01:49:07;;;;;;;52.03;28.25;;;;;;;;;;4946108;28;20026;-69
2022/12/12 01:51:35;;;;;;;51.65;27.40;;;;;;;;;;5010096;28;20041;-69
2022/12/12 01:54:06;;;;;;;53.20;28.38;;;;;;;;;;4944784;28;22178;-70
2022/12/12 01:56:32;;;;;;;54.15;28.80;;;;;;;;;;4926111;28;20141;-70
2022/12/12 01:58:59;;;;;;;54.05;28.80;;;;;;;;;;4945911;28;20046;-70
2022/12/12 02:01:27;;;;;;;53.83;28.75;;;;;;;;;;4946449;28;20031;-69
2022/12/12 02:03:53;;;;;;;57.65;27.75;;;;;;;;;;4943553;28;20845;-69
2022/12/12 02:06:22;;;;;;;53.95;28.05;;;;;;;;;;4944267;28;20073;-69
2022/12/12 02:08:49;;;;;;;53.20;28.45;;;;;;;;;;4943767;28;20034;-69
2022/12/12 02:11:16;;;;;;;48.13;26.33;;;;;;;;;;4945215;28;20115;-70
2022/12/12 02:13:42;;;;;;;55.00;29.02;;;;;;;;;;4928114;28;20034;-70
2022/12/12 02:16:31;;;;;;;51.83;26.65;;;;;;;;;;4943944;28;20603;-69
2022/12/12 02:18:56;;;;;;;52.20;27.55;;;;;;;;;;4947838;28;20054;-69
2022/12/12 02:21:33;;;;;;;52.50;27.02;;;;;;;;;;4945437;28;20038;-69
2022/12/12 02:24:01;;;;;;;52.30;27.73;;;;;;;;;;4942612;28;20711;-70
2022/12/12 02:26:45;;;;;;;51.20;27.63;;;;;;;;;;4941899;28;22549;-70
2022/12/12 02:29:14;;;;;;;60.85;30.15;;;;;;;;;;4926807;28;20035;-70
2022/12/12 02:31:41;;;;;;;59.78;28.17;;;;;;;;;;4942530;28;20798;-70
2022/12/12 02:34:13;;;;;;;48.63;26.15;;;;;;;;;;4942929;28;20034;-69
2022/12/12 02:36:53;;;;;;;44.05;23.92;;;;;;;;;;4943349;28;20030;-69
2022/12/12 02:39:26;;;;;;;47.25;23.98;;;;;;;;;;4921917;28;20200;-69
2022/12/12 02:41:57;;;;;;;41.20;24.30;;;;;;;;;;4943079;28;20038;-68
2022/12/12 02:44:33;;;;;;;40.15;21.67;;;;;;;;;;4922523;28;20046;-71
2022/12/12 02:47:01;;;;;;;38.03;21.00;;;;;;;;;;4943217;28;20042;-69
2022/12/12 02:49:34;;;;;;;36.08;20.15;;;;;;;;;;4923761;28;20063;-69
2022/12/12 02:51:59;;;;;;;37.85;20.67;;;;;;;;;;4942289;28;20155;-70
2022/12/12 02:54:28;;;;;;;37.88;21.52;;;;;;;;;;4943614;28;20046;-68
2022/12/12 02:56:58;;;;;;;41.17;22.27;;;;;;;;;;4935622;28;20038;-69
2022/12/12 02:59:55;;;;;;;37.85;22.23;;;;;;;;;;4923887;28;20114;-68
2022/12/12 03:02:29;;;;;;;72.80;30.27;;;;;;;;;;4931129;28;20042;-70
2022/12/12 03:08:02;;;;;;;47.40;28.33;;;;;;;;;;4943084;28;20080;-70
2022/12/12 03:10:31;;;;;;;53.30;31.27;;;;;;;;;;4943075;28;20049;-70
2022/12/12 03:13:02;;;;;;;54.80;30.55;;;;;;;;;;4942630;28;20042;-71
2022/12/12 03:15:36;;;;;;;59.85;32.33;;;;;;;;;;4942711;28;20047;-70
2022/12/12 03:18:19;;;;;;;55.80;29.65;;;;;;;;;;4943064;28;21031;-70
2022/12/12 03:20:48;;;;;;;52.13;27.60;;;;;;;;;;4923673;28;20066;-70
2022/12/12 03:23:14;;;;;;;54.97;33.50;;;;;;;;;;4941720;28;21010;-69
2022/12/12 03:25:53;;;;;;;52.63;33.85;;;;;;;;;;4920694;28;20030;-69
2022/12/12 03:28:24;;;;;;;54.92;33.92;;;;;;;;;;4922204;28;20727;-69
2022/12/12 03:30:54;;;;;;;52.15;31.92;;;;;;;;;;4941757;28;20042;-68
2022/12/12 03:33:38;;;;;;;54.65;31.85;;;;;;;;;;4942008;28;20142;-69
2022/12/12 03:36:25;;;;;;;55.30;32.92;;;;;;;;;;4919923;28;20453;-69
2022/12/12 03:38:58;;;;;;;54.13;33.58;;;;;;;;;;4940745;28;20034;-69
2022/12/12 03:41:28;;;;;;;52.03;30.90;;;;;;;;;;4940541;28;20111;-69
2022/12/12 03:43:57;;;;;;;54.17;33.05;;;;;;;;;;4941876;28;20130;-69
2022/12/12 03:46:35;;;;;;;55.50;33.08;;;;;;;;;;4941547;28;20058;-69
2022/12/12 03:49:05;;;;;;;58.35;34.83;;;;;;;;;;4921730;28;20047;-69
2022/12/12 03:51:34;;;;;;;55.20;32.33;;;;;;;;;;4941508;28;20123;-70
2022/12/12 03:54:18;;;;;;;58.92;33.80;;;;;;;;;;4941747;28;20725;-70
2022/12/12 03:56:46;;;;;;;60.95;31.95;;;;;;;;;;4940219;28;20481;-69
2022/12/12 03:59:15;;;;;;;53.40;31.75;;;;;;;;;;4924325;28;20154;-69
2022/12/12 04:01:45;;;;;;;54.85;31.30;;;;;;;;;;4921670;28;20035;-69
2022/12/12 04:04:15;;;;;;;58.70;34.72;;;;;;;;;;4940663;28;20616;-70
2022/12/12 04:06:59;;;;;;;59.50;33.97;;;;;;;;;;4920854;28;22354;-71
2022/12/12 04:15:14;;;;;;;61.55;39.35;;;;;;;;;;4941167;28;20053;-69
2022/12/12 04:17:43;;;;;;;61.08;38.92;;;;;;;;;;4924402;28;20046;-68
2022/12/12 04:23:14;;;;;;;67.75;42.10;;;;;;;;;;4940590;28;20077;-69
2022/12/12 04:28:38;;;;;;;65.82;40.92;;;;;;;;;;4922288;28;20026;-68
2022/12/12 04:31:04;;;;;;;63.97;43.33;;;;;;;;;;4941727;28;20035;-69
2022/12/12 04:33:34;;;;;;;64.68;43.40;;;;;;;;;;4924489;28;21810;-69
2022/12/12 04:36:03;;;;;;;75.78;48.72;;;;;;;;;;4941741;28;20118;-69
2022/12/12 04:38:28;;;;;;;71.70;45.30;;;;;;;;;;4938007;28;20038;-69
2022/12/12 04:40:55;;;;;;;65.07;44.28;;;;;;;;;;4941196;28;20133;-69
2022/12/12 04:43:24;;;;;;;71.53;45.70;;;;;;;;;;4939685;28;20112;-69
2022/12/12 04:45:53;;;;;;;71.05;45.42;;;;;;;;;;4940455;28;20065;-69
2022/12/12 04:48:21;;;;;;;60.10;36.42;;;;;;;;;;4941877;28;20042;-69
2022/12/12 04:50:47;;;;;;;59.95;37.53;;;;;;;;;;4945273;28;20760;-69
2022/12/12 04:53:14;;;;;;;53.95;33.33;;;;;;;;;;4942495;28;20042;-68
2022/12/12 04:55:42;;;;;;;58.75;33.70;;;;;;;;;;4944094;28;20034;-69
2022/12/12 04:58:10;;;;;;;54.22;32.10;;;;;;;;;;4943606;28;20045;-69
2022/12/12 05:00:44;;;;;;;53.67;35.30;;;;;;;;;;4943875;28;20605;-69
2022/12/12 05:03:18;;;;;;;55.50;32.65;;;;;;;;;;4944207;28;20058;-69
2022/12/12 05:05:48;;;;;;;58.20;34.13;;;;;;;;;;4944442;28;20871;-69
2022/12/12 05:08:21;;;;;;;58.50;32.92;;;;;;;;;;4922908;28;20145;-70
2022/12/12 05:10:49;;;;;;;59.20;38.80;;;;;;;;;;4943973;28;20037;-69
2022/12/12 05:13:16;;;;;;;59.67;39.63;;;;;;;;;;4944315;28;20035;-69
2022/12/12 05:15:42;;;;;;;71.10;42.17;;;;;;;;;;4943811;28;20027;-70
2022/12/12 05:18:09;;;;;;;64.03;40.97;;;;;;;;;;4944039;28;20069;-70
2022/12/12 05:20:34;;;;;;;66.53;42.33;;;;;;;;;;4945687;28;20069;-69
2022/12/12 05:23:02;;;;;;;65.80;41.58;;;;;;;;;;4929134;28;20038;-69
2022/12/12 05:25:28;;;;;;;66.70;42.55;;;;;;;;;;4939766;28;22510;-69
2022/12/12 05:27:53;;;;;;;63.58;38.65;;;;;;;;;;4943787;28;20087;-69
2022/12/12 05:30:18;;;;;;;69.13;44.25;;;;;;;;;;4944020;28;20023;-69
2022/12/12 05:32:46;;;;;;;72.57;44.95;;;;;;;;;;4944688;28;20332;-68
2022/12/12 05:35:14;;;;;;;66.05;42.30;;;;;;;;;;4943409;28;20053;-69
2022/12/12 05:37:40;;;;;;;66.20;43.15;;;;;;;;;;4939221;28;20031;-69
2022/12/12 05:40:05;;;;;;;69.40;45.95;;;;;;;;;;4944302;28;20042;-70
2022/12/12 05:42:31;;;;;;;66.63;44.75;;;;;;;;;;4923157;28;20069;-68
2022/12/12 05:44:56;;;;;;;64.78;43.78;;;;;;;;;;4942481;28;20050;-68
2022/12/12 05:47:21;;;;;;;71.38;46.72;;;;;;;;;;4930749;28;20042;-68
2022/12/12 05:49:47;;;;;;;68.32;43.90;;;;;;;;;;4943845;28;20146;-68
2022/12/12 05:52:15;;;;;;;57.78;34.90;;;;;;;;;;4942854;28;20077;-69
2022/12/12 05:54:42;;;;;;;65.50;37.25;;;;;;;;;;4938020;28;20038;-69
2022/12/12 05:57:13;;;;;;;75.32;46.75;;;;;;;;;;4903896;28;20049;-69
2022/12/12 05:59:38;;;;;;;93.53;68.47;;;;;;;;;;4921960;28;20042;-69
2022/12/12 06:02:05;;;;;;;105.05;77.65;;;;;;;;;;4944096;28;20575;-69
2022/12/12 06:04:33;;;;;;;99.72;71.03;;;;;;;;;;4943625;28;20075;-69
2022/12/12 06:07:01;;;;;;;99.10;72.05;;;;;;;;;;4924213;28;20122;-69
2022/12/12 06:09:28;;;;;;;95.50;69.97;;;;;;;;;;4945370;28;20145;-69
2022/12/12 06:11:54;;;;;;;83.28;59.17;;;;;;;;;;4941961;28;20050;-69
2022/12/12 06:14:19;;;;;;;79.15;52.42;;;;;;;;;;4943041;28;20062;-69
2022/12/12 06:16:44;;;;;;;73.38;47.53;;;;;;;;;;4942963;28;20038;-69
2022/12/12 06:19:10;;;;;;;72.03;41.65;;;;;;;;;;4941684;28;20512;-69
2022/12/12 06:21:35;;;;;;;76.93;42.92;;;;;;;;;;4941509;28;20042;-66
2022/12/12 06:24:03;;;;;;;75.45;41.97;;;;;;;;;;4940172;28;20050;-68
2022/12/12 06:26:29;;;;;;;68.88;38.83;;;;;;;;;;4939391;28;20073;-67
2022/12/12 06:28:54;;;;;;;61.27;35.07;;;;;;;;;;4940994;28;20105;-69
2022/12/12 06:31:22;;;;;;;68.15;35.25;;;;;;;;;;4940996;28;20039;-68
2022/12/12 06:33:47;;;;;;;63.75;33.78;;;;;;;;;;4928542;28;20039;-67
2022/12/12 06:36:15;;;;;;;65.07;33.20;;;;;;;;;;4936289;28;21012;-67
2022/12/12 06:38:43;;;;;;;68.90;33.90;;;;;;;;;;4937009;28;20042;-68
2022/12/12 06:41:12;;;;;;;67.18;33.53;;;;;;;;;;4923483;28;20050;-68
2022/12/12 06:43:37;;;;;;;70.17;35.40;;;;;;;;;;4938763;28;20982;-68
2022/12/12 06:46:04;;;;;;;71.10;36.10;;;;;;;;;;4940244;28;20153;-67
2022/12/12 06:48:30;;;;;;;77.78;36.63;;;;;;;;;;4938891;28;20131;-67
2022/12/12 06:50:55;;;;;;;81.38;38.33;;;;;;;;;;4939012;28;21103;-67
2022/12/12 06:53:21;;;;;;;74.15;38.75;;;;;;;;;;4939745;28;20043;-67
2022/12/12 06:55:46;;;;;;;73.30;37.23;;;;;;;;;;4902832;28;20030;-69
2022/12/12 06:58:11;;;;;;;76.80;39.20;;;;;;;;;;4932069;28;20129;-67
2022/12/12 07:00:37;;;;;;;85.82;38.50;;;;;;;;;;4900939;28;20767;-70
2022/12/12 07:03:03;;;;;;;77.88;38.83;;;;;;;;;;4918581;28;20137;-68
2022/12/12 07:05:28;;;;;;;81.93;39.73;;;;;;;;;;4938383;28;20042;-68
2022/12/12 07:07:57;;;;;;;75.57;38.65;;;;;;;;;;4939311;28;20045;-68
2022/12/12 07:10:23;;;;;;;72.30;37.40;;;;;;;;;;4939901;28;20207;-68
2022/12/12 07:12:50;;;;;;;74.43;38.00;;;;;;;;;;4938336;28;20820;-68
2022/12/12 07:15:16;;;;;;;72.47;37.60;;;;;;;;;;4938995;28;20125;-68
2022/12/12 07:17:41;;;;;;;71.67;36.87;;;;;;;;;;4938257;28;20940;-70
2022/12/12 07:20:07;;;;;;;71.83;36.57;;;;;;;;;;4920896;28;20038;-69
2022/12/12 07:22:32;;;;;;;71.75;36.90;;;;;;;;;;4915784;28;20042;-70
2022/12/12 07:24:58;;;;;;;65.30;35.40;;;;;;;;;;4938662;28;22011;-68
2022/12/12 07:27:23;;;;;;;67.43;36.90;;;;;;;;;;4906084;28;20050;-68
2022/12/12 07:29:48;;;;;;;71.40;37.57;;;;;;;;;;4939561;28;20116;-68
2022/12/12 07:32:14;;;;;;;74.07;37.67;;;;;;;;;;4938886;28;21012;-67
2022/12/12 07:34:39;;;;;;;71.40;37.42;;;;;;;;;;4913861;28;20120;-69
2022/12/12 07:37:05;;;;;;;76.00;37.47;;;;;;;;;;4940723;28;20848;-68
2022/12/12 07:39:31;;;;;;;71.97;38.25;;;;;;;;;;4939899;28;20141;-68
2022/12/12 07:41:58;;;;;;;76.25;39.17;;;;;;;;;;4938808;28;20137;-67
2022/12/12 07:44:26;;;;;;;70.35;37.15;;;;;;;;;;4933970;28;20079;-67
2022/12/12 07:46:51;;;;;;;72.03;39.70;;;;;;;;;;4938665;28;20050;-69
2022/12/12 07:49:18;;;;;;;74.47;38.40;;;;;;;;;;4938053;28;20039;-68
2022/12/12 07:51:43;;;;;;;77.43;38.95;;;;;;;;;;4938313;28;20043;-67
2022/12/12 07:54:11;;;;;;;73.70;38.93;;;;;;;;;;4939092;28;20041;-69
2022/12/12 07:56:37;;;;;;;74.47;39.13;;;;;;;;;;4938189;28;20065;-67
2022/12/12 07:59:02;;;;;;;77.83;39.43;;;;;;;;;;4938472;28;20046;-69
2022/12/12 08:01:29;;;;;;;74.90;40.20;;;;;;;;;;4920226;28;20282;-68
2022/12/12 08:03:54;;;;;;;73.67;38.37;;;;;;;;;;4904796;28;20065;-69
2022/12/12 08:06:21;;;;;;;69.00;38.93;;;;;;;;;;4937506;28;20594;-67
2022/12/12 08:08:47;;;;;;;77.80;42.80;;;;;;;;;;4937279;28;20038;-68
2022/12/12 08:11:13;;;;;;;77.50;45.33;;;;;;;;;;4916286;28;20102;-67
2022/12/12 08:13:38;;;;;;;88.67;50.50;;;;;;;;;;4938294;28;20080;-69
2022/12/12 08:16:05;;;;;;;90.13;48.33;;;;;;;;;;4937686;28;20034;-68
2022/12/12 08:18:30;;;;;;;81.87;46.73;;;;;;;;;;4934987;28;20207;-69
2022/12/12 08:20:57;;;;;;;80.97;43.77;;;;;;;;;;4920221;28;20875;-68
2022/12/12 08:23:23;;;;;;;84.50;45.83;;;;;;;;;;4917039;28;20458;-68
2022/12/12 08:25:48;;;;;;;93.50;47.57;;;;;;;;;;4920404;28;20031;-69
2022/12/12 08:28:13;;;;;;;87.50;47.17;;;;;;;;;;4919732;28;20394;-68
2022/12/12 08:30:39;;;;;;;90.23;47.97;;;;;;;;;;4922350;28;20064;-67
2022/12/12 08:33:04;;;;;;;84.07;48.43;;;;;;;;;;4941657;28;20065;-68
2022/12/12 08:35:31;;;;;;;78.13;42.30;;;;;;;;;;4941323;28;20873;-68
2022/12/12 08:37:57;;;;;;;81.67;42.43;;;;;;;;;;4942403;28;20034;-69
2022/12/12 08:40:23;;;;;;;85.00;41.10;;;;;;;;;;4940662;28;20037;-69
2022/12/12 08:42:48;;;;;;;84.73;40.53;;;;;;;;;;4921627;28;20198;-67
2022/12/12 08:45:14;;;;;;;78.97;40.80;;;;;;;;;;4939555;28;20046;-68
2022/12/12 08:47:39;;;;;;;76.87;38.77;;;;;;;;;;4940367;28;20417;-67
2022/12/12 08:50:05;;;;;;;75.40;37.53;;;;;;;;;;4936537;28;20412;-67
2022/12/12 08:52:33;;;;;;;76.30;38.17;;;;;;;;;;4939381;28;20189;-68
2022/12/12 08:55:01;;;;;;;85.23;40.70;;;;;;;;;;4920045;28;20568;-68
2022/12/12 08:57:27;;;;;;;95.17;43.50;;;;;;;;;;4917955;28;20038;-68
2022/12/12 08:59:52;;;;;;;102.80;45.78;;;;;;;;;;4919713;28;20513;-68
2022/12/12 09:02:17;;;;;;;95.30;43.38;;;;;;;;;;4917009;28;20042;-67
2022/12/12 09:04:43;;;;;;;97.93;45.93;;;;;;;;;;4939801;28;20042;-67
2022/12/12 09:07:08;;;;;;;95.63;44.47;;;;;;;;;;4919775;28;20832;-68
2022/12/12 09:09:34;;;;;;;77.97;36.70;;;;;;;;;;4917952;28;20676;-67
2022/12/12 09:11:59;;;;;;;69.20;36.37;;;;;;;;;;4940191;28;21677;-67
2022/12/12 09:14:27;;;;;;;72.50;36.10;;;;;;;;;;4940117;28;20129;-67
2022/12/12 09:16:52;;;;;;;65.47;34.70;;;;;;;;;;4918047;28;20115;-67
2022/12/12 09:19:17;;;;;;;66.65;33.65;;;;;;;;;;4939229;28;20997;-66
2022/12/12 09:21:43;;;;;;;68.77;35.03;;;;;;;;;;4933934;28;20239;-68
2022/12/12 09:24:08;;;;;;;67.77;35.00;;;;;;;;;;4939702;28;20058;-68
2022/12/12 09:26:33;;;;;;;74.70;36.33;;;;;;;;;;4934693;28;20428;-67
2022/12/12 09:28:59;;;;;;;73.17;37.43;;;;;;;;;;4939834;28;20204;-68
2022/12/12 09:31:26;;;;;;;74.03;36.77;;;;;;;;;;4939832;28;21824;-68
2022/12/12 09:33:52;;;;;;;71.37;36.03;;;;;;;;;;4922538;28;20043;-67
2022/12/12 09:36:20;;;;;;;65.33;33.23;;;;;;;;;;4920838;28;20034;-67
2022/12/12 09:38:45;;;;;;;76.13;36.17;;;;;;;;;;4922598;28;20510;-68
2022/12/12 09:41:23;;;;;;;64.55;35.00;;;;;;;;;;4928815;28;20048;-67
2022/12/12 09:44:07;;;;;;;70.23;34.83;;;;;;;;;;4940290;28;20081;-68
2022/12/12 09:46:43;;;;;;;69.30;35.03;;;;;;;;;;4938926;28;20173;-67
2022/12/12 09:49:11;;;;;;;73.37;35.60;;;;;;;;;;4915904;28;20042;-66
2022/12/12 09:51:36;;;;;;;70.67;34.13;;;;;;;;;;4940057;28;20072;-67
2022/12/12 09:54:02;;;;;;;66.30;35.03;;;;;;;;;;4940795;28;20540;-67
2022/12/12 09:56:51;;;;;;;60.95;31.98;;;;;;;;;;4940086;28;20038;-67
2022/12/12 09:59:26;;;;;;;61.57;31.37;;;;;;;;;;4940827;28;20034;-66
2022/12/12 10:01:58;;;;;;;60.58;32.40;;;;;;;;;;4939517;28;20039;-66
2022/12/12 10:04:41;;;;;;;66.53;35.03;;;;;;;;;;4935385;28;20363;-67
2022/12/12 10:07:18;;;;;;;71.63;35.33;;;;;;;;;;4939439;28;20043;-69
2022/12/12 10:09:53;;;;;;;80.40;42.53;;;;;;;;;;4917360;28;20046;-68
2022/12/12 10:12:20;;;;;;;84.22;46.22;;;;;;;;;;4920554;28;20920;-67
2022/12/12 10:14:46;;;;;;;76.28;40.00;;;;;;;;;;4938461;28;20042;-68
2022/12/12 10:17:17;;;;;;;65.05;34.42;;;;;;;;;;4939639;28;20050;-67
2022/12/12 10:20:03;;;;;;;82.72;40.47;;;;;;;;;;4939456;28;20555;-66
2022/12/12 10:22:47;;;;;;;70.07;34.75;;;;;;;;;;4919255;28;20184;-68
2022/12/12 10:25:15;;;;;;;79.03;41.03;;;;;;;;;;4917124;28;20050;-66
2022/12/12 10:27:41;;;;;;;69.38;35.55;;;;;;;;;;4938191;28;20039;-67
2022/12/12 10:30:14;;;;;;;72.65;36.75;;;;;;;;;;4938267;28;20459;-68
2022/12/12 10:32:59;;;;;;;74.68;35.20;;;;;;;;;;4938977;28;20602;-67
2022/12/12 10:35:40;;;;;;;67.00;34.40;;;;;;;;;;4939050;28;20048;-69
2022/12/12 10:38:16;;;;;;;70.90;34.63;;;;;;;;;;4937183;28;20623;-69
2022/12/12 10:40:41;;;;;;;81.07;34.85;;;;;;;;;;4938414;28;20078;-70
2022/12/12 10:43:18;;;;;;;76.25;37.58;;;;;;;;;;4938042;28;20046;-68
2022/12/12 10:45:47;;;;;;;85.50;37.88;;;;;;;;;;4937699;28;20046;-68
2022/12/12 10:48:13;;;;;;;78.50;40.97;;;;;;;;;;4932432;28;20038;-68
2022/12/12 10:50:59;;;;;;;75.78;41.33;;;;;;;;;;4938618;28;20085;-67
2022/12/12 10:53:25;;;;;;;68.80;36.40;;;;;;;;;;4929414;28;20179;-66
2022/12/12 10:55:51;;;;;;;59.92;33.33;;;;;;;;;;4940330;28;20038;-70
2022/12/12 10:58:17;;;;;;;59.53;32.67;;;;;;;;;;4939564;28;20041;-69
2022/12/12 11:00:47;;;;;;;53.65;28.05;;;;;;;;;;4939694;28;20042;-67
2022/12/12 11:03:21;;;;;;;53.47;29.00;;;;;;;;;;4942063;28;20050;-66
2022/12/12 11:05:47;;;;;;;56.05;28.27;;;;;;;;;;4932634;28;21039;-66
2022/12/12 11:08:20;;;;;;;55.85;29.58;;;;;;;;;;4938467;28;20034;-67
2022/12/12 11:10:58;;;;;;;54.20;29.63;;;;;;;;;;4939817;28;20814;-68
2022/12/12 11:13:23;;;;;;;50.63;28.85;;;;;;;;;;4940237;28;20592;-68
2022/12/12 11:15:57;;;;;;;58.28;35.13;;;;;;;;;;4939324;28;20125;-68
2022/12/12 11:18:23;;;;;;;61.08;39.90;;;;;;;;;;4921199;28;20034;-67
2022/12/12 11:20:59;;;;;;;55.70;34.70;;;;;;;;;;4923126;28;20030;-66
2022/12/12 11:23:26;;;;;;;60.47;38.85;;;;;;;;;;4943522;28;20031;-67
2022/12/12 11:25:56;;;;;;;58.38;35.72;;;;;;;;;;4942259;28;20045;-67
2022/12/12 11:28:23;;;;;;;55.53;33.88;;;;;;;;;;4923967;28;20034;-66
2022/12/12 11:30:55;;;;;;;60.35;36.63;;;;;;;;;;4942822;28;20102;-66
2022/12/12 11:33:21;;;;;;;57.58;35.92;;;;;;;;;;4943929;28;20042;-65
2022/12/12 11:35:52;;;;;;;65.03;41.28;;;;;;;;;;4939407;28;20124;-68
2022/12/12 11:38:25;;;;;;;66.10;43.93;;;;;;;;;;4940702;28;20037;-67
2022/12/12 11:41:01;;;;;;;64.25;42.60;;;;;;;;;;4942597;28;20034;-67
2022/12/12 11:43:30;;;;;;;60.55;41.53;;;;;;;;;;4921806;28;20080;-66
2022/12/12 11:46:09;;;;;;;63.40;36.33;;;;;;;;;;4939991;28;20046;-66
2022/12/12 11:48:37;;;;;;;54.67;37.40;;;;;;;;;;4938844;28;20038;-67
2022/12/12 11:51:05;;;;;;;62.42;40.42;;;;;;;;;;4939384;28;20103;-67
2022/12/12 11:53:39;;;;;;;66.32;42.10;;;;;;;;;;4922900;28;20051;-68
2022/12/12 11:56:07;;;;;;;60.15;40.03;;;;;;;;;;4940671;28;20042;-66
2022/12/12 11:58:54;;;;;;;58.95;37.22;;;;;;;;;;4934531;28;20112;-66
2022/12/12 12:01:38;;;;;;;53.80;34.60;;;;;;;;;;4945279;28;20050;-66
2022/12/12 12:04:04;;;;;;;55.08;35.22;;;;;;;;;;4944427;28;20053;-66
2022/12/12 12:06:44;;;;;;;59.97;32.00;;;;;;;;;;4943764;28;20071;-67
2022/12/12 12:09:16;;;;;;;54.00;29.25;;;;;;;;;;4945244;28;20046;-66
2022/12/12 12:11:50;;;;;;;51.88;26.55;;;;;;;;;;4944969;28;20050;-67
2022/12/12 12:14:16;;;;;;;50.75;26.17;;;;;;;;;;4945847;28;20819;-66
2022/12/12 12:16:59;;;;;;;47.03;26.67;;;;;;;;;;4943679;28;20048;-68
2022/12/12 12:19:35;;;;;;;54.20;27.67;;;;;;;;;;4941673;28;20042;-67
2022/12/12 12:22:07;;;;;;;54.78;27.52;;;;;;;;;;4942044;28;20123;-67
2022/12/12 12:24:32;;;;;;;39.60;22.45;;;;;;;;;;4940932;28;20158;-67
2022/12/12 12:27:19;;;;;;;50.00;24.75;;;;;;;;;;4939202;28;20039;-67
2022/12/12 12:30:03;;;;;;;41.53;23.67;;;;;;;;;;4941306;28;20134;-67
2022/12/12 12:32:37;;;;;;;41.38;23.77;;;;;;;;;;4935542;28;20541;-68
2022/12/12 12:35:14;;;;;;;38.25;23.50;;;;;;;;;;4941843;28;20092;-68
2022/12/12 12:37:54;;;;;;;43.50;23.67;;;;;;;;;;4940095;28;20448;-68
2022/12/12 12:40:25;;;;;;;43.33;23.67;;;;;;;;;;4941596;28;20282;-69
2022/12/12 12:43:20;;;;;;;44.70;23.58;;;;;;;;;;4939362;28;20299;-67
2022/12/12 12:45:56;;;;;;;39.88;24.08;;;;;;;;;;4932802;28;20054;-69
2022/12/12 12:48:25;;;;;;;36.85;20.75;;;;;;;;;;4917148;28;20035;-68
2022/12/12 12:51:00;;;;;;;38.97;21.48;;;;;;;;;;4917745;28;20229;-68
2022/12/12 12:53:26;;;;;;;39.15;21.98;;;;;;;;;;4918934;28;20093;-69
2022/12/12 12:55:55;;;;;;;42.38;23.00;;;;;;;;;;4917529;28;20046;-68
2022/12/12 12:58:26;;;;;;;38.47;22.10;;;;;;;;;;4918985;28;20267;-69
2022/12/12 13:00:59;;;;;;;36.47;20.50;;;;;;;;;;4916822;28;20426;-67
2022/12/12 13:03:30;;;;;;;37.05;19.60;;;;;;;;;;4916638;28;20047;-67
2022/12/12 13:05:56;;;;;;;34.15;20.45;;;;;;;;;;4917622;28;20134;-67
2022/12/12 13:08:30;;;;;;;33.13;19.98;;;;;;;;;;4918879;28;20568;-68
2022/12/12 13:10:59;;;;;;;34.58;19.40;;;;;;;;;;4900147;28;20035;-67
2022/12/12 13:13:24;;;;;;;35.33;19.50;;;;;;;;;;4916359;28;20165;-67
2022/12/12 13:15:53;;;;;;;35.72;19.73;;;;;;;;;;4916447;28;20124;-67
2022/12/12 13:18:18;;;;;;;34.15;18.30;;;;;;;;;;4918093;28;20198;-67
2022/12/12 13:20:52;;;;;;;31.50;18.02;;;;;;;;;;4916345;28;20768;-70
2022/12/12 13:23:18;;;;;;;35.50;17.88;;;;;;;;;;4917702;28;20077;-67
2022/12/12 13:26:07;;;;;;;36.35;19.55;;;;;;;;;;4917374;28;20039;-67
2022/12/12 13:28:39;;;;;;;33.38;18.60;;;;;;;;;;4917030;28;20039;-68
2022/12/12 13:31:24;;;;;;;33.40;18.98;;;;;;;;;;4917767;28;20188;-67
2022/12/12 13:33:58;;;;;;;38.33;19.60;;;;;;;;;;4916987;28;20153;-68
2022/12/12 13:36:25;;;;;;;33.72;18.52;;;;;;;;;;4917729;28;20825;-68
2022/12/12 13:38:52;;;;;;;36.28;19.65;;;;;;;;;;4915455;28;22399;-66
2022/12/12 13:41:18;;;;;;;36.05;19.10;;;;;;;;;;4919718;28;20125;-67
2022/12/12 13:43:46;;;;;;;34.08;19.52;;;;;;;;;;4919471;28;20101;-67
2022/12/12 13:46:20;;;;;;;38.72;19.52;;;;;;;;;;4940957;28;20843;-68
2022/12/12 13:48:55;;;;;;;37.00;19.83;;;;;;;;;;4940280;28;20175;-69
2022/12/12 13:51:26;;;;;;;36.00;19.98;;;;;;;;;;4906465;28;20038;-67
2022/12/12 13:54:14;;;;;;;37.72;19.88;;;;;;;;;;4938272;28;20461;-67
2022/12/12 13:56:43;;;;;;;35.83;19.13;;;;;;;;;;4910920;28;20034;-66
2022/12/12 13:59:21;;;;;;;33.95;19.33;;;;;;;;;;4939759;28;20558;-66
2022/12/12 14:02:19;;;;;;;32.80;18.98;;;;;;;;;;4939280;28;20077;-67
2022/12/12 14:04:48;;;;;;;38.45;20.48;;;;;;;;;;4919231;28;20034;-66
2022/12/12 14:07:24;;;;;;;36.50;21.15;;;;;;;;;;4932242;28;20132;-66
2022/12/12 14:09:54;;;;;;;38.08;22.45;;;;;;;;;;4933090;28;20049;-67
2022/12/12 14:12:23;;;;;;;36.35;21.50;;;;;;;;;;4935850;28;20044;-68
2022/12/12 14:14:52;;;;;;;32.67;19.50;;;;;;;;;;4940281;28;20065;-66
2022/12/12 14:17:19;;;;;;;36.10;19.75;;;;;;;;;;4939738;28;20045;-66
2022/12/12 14:19:50;;;;;;;37.60;19.85;;;;;;;;;;4937985;28;20034;-68
2022/12/12 14:22:26;;;;;;;35.63;17.75;;;;;;;;;;4923247;28;20275;-67
2022/12/12 14:25:05;;;;;;;34.72;18.27;;;;;;;;;;4939351;28;20050;-67
2022/12/12 14:27:49;;;;;;;43.63;23.80;;;;;;;;;;4903923;28;20059;-68
2022/12/12 14:30:21;;;;;;;43.00;23.58;;;;;;;;;;4938879;28;20315;-67
2022/12/12 14:32:58;;;;;;;37.20;21.35;;;;;;;;;;4922801;28;20128;-69
2022/12/12 14:35:23;;;;;;;39.80;20.48;;;;;;;;;;4938922;28;20088;-68
2022/12/12 14:38:07;;;;;;;37.92;18.67;;;;;;;;;;4938360;28;20038;-67
2022/12/12 14:40:36;;;;;;;38.05;19.67;;;;;;;;;;4938594;28;20039;-68
2022/12/12 14:43:20;;;;;;;32.25;18.08;;;;;;;;;;4939195;28;20062;-67
2022/12/12 14:45:49;;;;;;;41.72;20.98;;;;;;;;;;4937064;28;20042;-68